createdAt,value
2018-08-22T00:02:08.732Z,11.30
2018-08-22T00:04:37.354Z,8.97
2018-08-22T00:07:05.988Z,9.93
2018-08-22T00:09:34.918Z,10.47
2018-08-22T00:12:03.768Z,11.20
2018-08-22T00:14:32.955Z,11.33
2018-08-22T00:17:01.951Z,12.07
2018-08-22T00:19:30.740Z,10.07
2018-08-22T00:21:59.570Z,10.50
2018-08-22T00:24:28.761Z,8.30
2018-08-22T00:26:57.709Z,11.43
2018-08-22T00:29:26.587Z,10.73
2018-08-22T00:31:55.330Z,12.57
2018-08-22T00:34:24.103Z,10.20
2018-08-22T00:36:52.810Z,11.40
2018-08-22T00:39:22.018Z,10.63
2018-08-22T00:41:51.090Z,11.13
2018-08-22T00:44:20.139Z,9.30
2018-08-22T00:46:49.136Z,10.43
2018-08-22T00:49:18.074Z,10.80
2018-08-22T00:51:47.124Z,9.47
2018-08-22T00:54:16.016Z,10.20
2018-08-22T00:56:45.263Z,12.97
2018-08-22T00:59:14.126Z,9.43
2018-08-22T01:01:42.981Z,9.37
2018-08-22T01:04:11.715Z,9.57
2018-08-22T01:06:40.408Z,11.93
2018-08-22T01:09:09.530Z,10.50
2018-08-22T01:11:38.388Z,8.40
2018-08-22T01:14:07.413Z,9.57
2018-08-22T01:16:36.214Z,10.83
2018-08-22T01:19:04.891Z,12.20
2018-08-22T01:21:33.757Z,9.90
2018-08-22T01:24:02.847Z,7.73
2018-08-22T01:26:31.619Z,8.57
2018-08-22T01:29:00.682Z,13.20
2018-08-22T01:31:29.466Z,10.83
2018-08-22T01:33:58.214Z,10.43
2018-08-22T01:36:27.154Z,10.33
2018-08-22T01:38:55.905Z,9.33
2018-08-22T01:41:24.581Z,10.43
2018-08-22T01:43:53.357Z,11.53
2018-08-22T01:46:22.211Z,8.57
2018-08-22T01:48:51.107Z,10.23
2018-08-22T01:51:19.960Z,9.13
2018-08-22T01:53:49.114Z,10.00
2018-08-22T01:56:18.060Z,15.87
2018-08-22T01:58:47.029Z,12.93
2018-08-22T02:01:16.012Z,8.77
2018-08-22T02:03:45.255Z,9.07
2018-08-22T02:06:13.987Z,8.50
2018-08-22T02:08:42.861Z,12.77
2018-08-22T02:11:11.859Z,11.63
2018-08-22T02:13:40.600Z,9.10
2018-08-22T02:16:09.274Z,10.50
2018-08-22T02:18:37.897Z,9.03
2018-08-22T02:21:06.950Z,14.37
2018-08-22T02:23:35.657Z,8.87
2018-08-22T02:26:04.783Z,10.03
2018-08-22T02:28:33.519Z,13.33
2018-08-22T02:31:02.554Z,11.33
2018-08-22T02:33:31.431Z,8.63
2018-08-22T02:36:00.226Z,10.67
2018-08-22T02:38:29.402Z,13.00
2018-08-22T02:40:58.633Z,10.47
2018-08-22T02:43:27.389Z,11.97
2018-08-22T02:45:56.123Z,9.50
2018-08-22T02:48:24.894Z,11.10
2018-08-22T02:50:54.535Z,12.90
2018-08-22T02:53:23.674Z,9.77
2018-08-22T02:55:52.752Z,10.87
2018-08-22T02:58:21.862Z,10.77
2018-08-22T03:00:50.858Z,12.73
2018-08-22T03:03:20.043Z,12.90
2018-08-22T03:05:48.843Z,14.37
2018-08-22T03:08:17.894Z,10.63
2018-08-22T03:10:46.891Z,11.93
2018-08-22T03:13:15.956Z,12.17
2018-08-22T03:15:44.698Z,13.17
2018-08-22T03:18:13.437Z,13.37
2018-08-22T03:20:42.176Z,15.03
2018-08-22T03:23:10.788Z,17.43
2018-08-22T03:25:39.612Z,13.77
2018-08-22T03:28:08.546Z,12.97
2018-08-22T03:30:37.509Z,21.27
2018-08-22T03:33:06.612Z,12.37
2018-08-22T03:35:35.651Z,25.07
2018-08-22T03:38:04.605Z,19.87
2018-08-22T03:40:33.428Z,13.30
2018-08-22T03:43:02.463Z,15.47
2018-08-22T03:45:31.387Z,15.70
2018-08-22T03:48:00.247Z,15.97
2018-08-22T03:50:29.208Z,15.37
2018-08-22T03:52:57.962Z,15.10
2018-08-22T03:55:26.857Z,16.53
2018-08-22T03:57:56.048Z,13.77
2018-08-22T04:00:24.906Z,15.33
2018-08-22T04:02:53.926Z,18.73
2018-08-22T04:05:22.679Z,22.73
2018-08-22T04:07:51.579Z,17.27
2018-08-22T04:10:20.473Z,14.97
2018-08-22T04:12:49.299Z,20.40
2018-08-22T04:15:18.198Z,19.43
2018-08-22T04:17:47.029Z,16.63
2018-08-22T04:20:16.142Z,20.50
2018-08-22T04:22:45.026Z,22.20
2018-08-22T04:25:13.937Z,21.93
2018-08-22T04:27:42.888Z,22.83
2018-08-22T04:30:11.623Z,22.50
2018-08-22T04:32:40.458Z,38.07
2018-08-22T04:35:09.417Z,33.30
2018-08-22T04:37:38.287Z,26.10
2018-08-22T04:40:07.338Z,28.97
2018-08-22T04:42:36.419Z,19.10
2018-08-22T04:45:05.326Z,25.37
2018-08-22T04:47:34.350Z,19.10
2018-08-22T04:50:03.292Z,22.37
2018-08-22T04:52:32.135Z,32.43
2018-08-22T04:55:01.098Z,37.27
2018-08-22T04:57:30.282Z,27.53
2018-08-22T04:59:59.029Z,26.57
2018-08-22T05:02:27.902Z,23.60
2018-08-22T05:04:57.000Z,30.33
2018-08-22T05:07:26.011Z,28.40
2018-08-22T05:09:54.621Z,22.63
2018-08-22T05:12:23.567Z,18.73
2018-08-22T05:14:52.399Z,23.23
2018-08-22T05:17:21.274Z,22.37
2018-08-22T05:19:50.215Z,17.80
2018-08-22T05:22:19.469Z,21.80
2018-08-22T05:24:48.435Z,25.77
2018-08-22T05:27:17.627Z,23.87
2018-08-22T05:29:46.639Z,20.83
2018-08-22T05:32:15.427Z,26.17
2018-08-22T05:34:44.282Z,21.43
2018-08-22T05:37:13.137Z,23.20
2018-08-22T05:39:42.055Z,21.20
2018-08-22T05:42:11.154Z,20.90
2018-08-22T05:44:40.163Z,21.77
2018-08-22T05:47:09.430Z,28.00
2018-08-22T05:49:38.794Z,25.53
2018-08-22T05:52:14.381Z,26.80
2018-08-22T05:54:43.181Z,25.83
2018-08-22T05:57:12.073Z,27.60
2018-08-22T05:59:41.019Z,25.67
2018-08-22T06:02:10.403Z,26.00
2018-08-22T06:04:39.087Z,22.30
2018-08-22T06:07:07.952Z,27.70
2018-08-22T06:09:37.046Z,24.07
2018-08-22T06:12:06.135Z,39.43
2018-08-22T06:14:35.200Z,27.77
2018-08-22T06:17:04.281Z,39.60
2018-08-22T06:19:32.963Z,25.50
2018-08-22T06:22:02.095Z,28.30
2018-08-22T06:24:31.280Z,23.63
2018-08-22T06:27:00.230Z,23.20
2018-08-22T06:29:29.603Z,23.27
2018-08-22T06:31:58.472Z,26.53
2018-08-22T06:34:27.145Z,24.47
2018-08-22T06:36:55.857Z,21.17
2018-08-22T06:39:25.001Z,26.30
2018-08-22T06:41:53.781Z,24.00
2018-08-22T06:44:22.595Z,20.40
2018-08-22T06:46:51.961Z,21.60
2018-08-22T06:49:20.786Z,16.37
2018-08-22T06:51:50.029Z,26.43
2018-08-22T06:54:18.790Z,18.17
2018-08-22T06:56:47.677Z,25.53
2018-08-22T06:59:16.383Z,15.67
2018-08-22T07:01:45.277Z,25.77
2018-08-22T07:04:14.109Z,19.57
2018-08-22T07:06:42.910Z,23.83
2018-08-22T07:09:12.535Z,25.77
2018-08-22T07:11:41.231Z,21.83
2018-08-22T07:14:10.765Z,22.70
2018-08-22T07:16:39.823Z,21.80
2018-08-22T07:19:08.871Z,25.70
2018-08-22T07:21:41.015Z,21.55
2018-08-22T07:24:09.897Z,22.47
2018-08-22T07:26:38.835Z,22.97
2018-08-22T07:29:07.612Z,23.25
2018-08-22T07:31:36.255Z,26.17
2018-08-22T07:34:05.246Z,31.33
2018-08-22T07:36:34.095Z,22.25
2018-08-22T07:39:02.867Z,25.85
2018-08-22T07:41:31.635Z,20.92
2018-08-22T07:44:00.359Z,16.80
2018-08-22T07:46:29.162Z,21.55
2018-08-22T07:48:58.188Z,26.25
2018-08-22T07:51:27.443Z,14.05
2018-08-22T07:53:56.732Z,16.05
2018-08-22T07:56:25.986Z,16.62
2018-08-22T07:58:59.093Z,17.62
2018-08-22T08:01:28.195Z,20.55
2018-08-22T08:03:57.287Z,21.87
2018-08-22T08:06:26.286Z,14.93
2018-08-22T08:08:55.083Z,19.90
2018-08-22T08:11:24.023Z,15.70
2018-08-22T08:13:52.740Z,16.17
2018-08-22T08:16:21.464Z,20.62
2018-08-22T08:18:50.442Z,22.48
2018-08-22T08:21:19.324Z,17.62
2018-08-22T08:23:48.282Z,14.20
2018-08-22T08:26:17.366Z,19.12
2018-08-22T08:28:46.355Z,26.37
2018-08-22T08:31:15.266Z,15.38
2018-08-22T08:33:44.044Z,16.40
2018-08-22T08:36:13.080Z,21.68
2018-08-22T08:38:42.531Z,14.65
2018-08-22T08:41:11.334Z,18.92
2018-08-22T08:43:41.318Z,15.30
2018-08-22T08:46:10.034Z,22.45
2018-08-22T08:48:38.827Z,13.10
2018-08-22T08:51:07.807Z,23.25
2018-08-22T08:53:36.678Z,17.10
2018-08-22T08:56:05.551Z,14.05
2018-08-22T08:58:34.390Z,12.75
2018-08-22T09:01:03.652Z,15.13
2018-08-22T09:03:32.367Z,12.40
2018-08-22T09:06:01.516Z,11.38
2018-08-22T09:08:30.310Z,13.88
2018-08-22T09:10:59.199Z,12.53
2018-08-22T09:13:28.068Z,13.70
2018-08-22T09:15:56.769Z,14.68
2018-08-22T09:18:25.476Z,13.90
2018-08-22T09:20:54.158Z,12.58
2018-08-22T09:23:22.883Z,10.75
2018-08-22T09:25:51.693Z,10.68
2018-08-22T09:28:20.721Z,9.65
2018-08-22T09:30:49.759Z,13.18
2018-08-22T09:33:18.609Z,9.60
2018-08-22T09:35:47.546Z,13.80
2018-08-22T09:38:16.406Z,18.75
2018-08-22T09:40:45.462Z,14.75
2018-08-22T09:43:14.294Z,10.18
2018-08-22T09:45:43.369Z,12.03
2018-08-22T09:48:12.357Z,11.22
2018-08-22T09:50:41.104Z,11.50
2018-08-22T09:53:09.994Z,16.82
2018-08-22T09:55:38.722Z,12.23
2018-08-22T09:58:07.832Z,11.45
2018-08-22T10:00:42.084Z,13.60
2018-08-22T10:03:11.013Z,9.43
2018-08-22T10:05:39.714Z,11.90
2018-08-22T10:08:09.211Z,15.10
2018-08-22T10:10:38.325Z,20.30
2018-08-22T10:13:07.234Z,11.55
2018-08-22T10:15:36.013Z,10.20
2018-08-22T10:18:05.100Z,17.10
2018-08-22T10:20:33.992Z,7.90
2018-08-22T10:23:03.135Z,8.48
2018-08-22T10:25:31.792Z,13.30
2018-08-22T10:28:00.378Z,19.37
2018-08-22T10:30:29.010Z,13.03
2018-08-22T10:32:57.964Z,9.45
2018-08-22T10:35:26.892Z,11.35
2018-08-22T10:37:55.795Z,15.15
2018-08-22T10:40:24.633Z,11.78
2018-08-22T10:42:53.454Z,16.20
2018-08-22T10:45:22.281Z,14.03
2018-08-22T10:47:51.496Z,12.68
2018-08-22T10:50:20.251Z,12.53
2018-08-22T10:52:49.205Z,9.70
2018-08-22T10:55:18.064Z,17.17
2018-08-22T10:57:47.018Z,11.95
2018-08-22T11:00:15.711Z,13.15
2018-08-22T11:02:44.527Z,13.55
2018-08-22T11:05:13.470Z,10.80
2018-08-22T11:07:42.639Z,15.90
2018-08-22T11:10:11.614Z,11.73
2018-08-22T11:12:40.731Z,13.28
2018-08-22T11:15:09.567Z,14.30
2018-08-22T11:17:38.615Z,12.15
2018-08-22T11:20:07.600Z,11.25
2018-08-22T11:22:47.429Z,13.50
2018-08-22T11:25:27.298Z,11.93
2018-08-22T11:28:07.009Z,8.15
2018-08-22T11:30:47.095Z,12.03
2018-08-22T11:33:26.895Z,9.40
2018-08-22T11:35:54.348Z,9.60
2018-08-22T11:38:23.261Z,13.10
2018-08-22T11:40:52.103Z,19.67
2018-08-22T11:43:21.443Z,13.45
2018-08-22T11:45:50.343Z,11.90
2018-08-22T11:48:19.566Z,25.15
2018-08-22T11:50:48.274Z,10.72
2018-08-22T11:53:17.366Z,8.58
2018-08-22T11:55:46.155Z,8.50
2018-08-22T11:58:15.157Z,15.35
2018-08-22T12:00:44.520Z,9.40
2018-08-22T12:03:13.267Z,10.28
2018-08-22T12:05:41.910Z,8.10
2018-08-22T12:08:11.672Z,12.25
2018-08-22T12:10:40.998Z,13.43
2018-08-22T12:13:10.063Z,10.95
2018-08-22T12:15:38.935Z,12.25
2018-08-22T12:18:07.862Z,12.53
2018-08-22T12:20:37.004Z,11.35
2018-08-22T12:23:05.944Z,12.63
2018-08-22T12:25:35.168Z,10.08
2018-08-22T12:28:04.305Z,11.05
2018-08-22T12:30:33.167Z,13.88
2018-08-22T12:33:02.033Z,15.58
2018-08-22T12:35:30.774Z,13.25
2018-08-22T12:37:59.426Z,8.60
2018-08-22T12:40:28.165Z,9.33
2018-08-22T12:42:56.855Z,19.05
2018-08-22T12:45:25.908Z,14.35
2018-08-22T12:47:54.844Z,12.05
2018-08-22T12:50:23.691Z,10.35
2018-08-22T12:52:52.620Z,11.22
2018-08-22T12:55:21.666Z,15.03
2018-08-22T12:57:50.669Z,13.15
2018-08-22T13:00:19.386Z,22.67
2018-08-22T13:02:48.238Z,11.90
2018-08-22T13:05:17.419Z,9.90
2018-08-22T13:07:46.097Z,14.47
2018-08-22T13:10:14.887Z,8.55
2018-08-22T13:12:43.636Z,12.90
2018-08-22T13:15:12.773Z,9.53
2018-08-22T13:17:41.939Z,14.70
2018-08-22T13:20:11.110Z,13.90
2018-08-22T13:22:39.974Z,8.25
2018-08-22T13:25:09.022Z,9.15
2018-08-22T13:27:37.902Z,9.43
2018-08-22T13:30:07.529Z,18.12
2018-08-22T13:32:36.617Z,14.05
2018-08-22T13:35:05.610Z,12.85
2018-08-22T13:37:36.176Z,10.58
2018-08-22T13:40:05.333Z,13.30
2018-08-22T13:42:34.297Z,10.08
2018-08-22T13:45:03.157Z,13.60
2018-08-22T13:47:32.006Z,11.15
2018-08-22T13:50:01.166Z,10.05
2018-08-22T13:52:30.092Z,12.37
2018-08-22T13:54:59.175Z,12.03
2018-08-22T13:57:28.066Z,13.30
2018-08-22T13:59:56.788Z,20.20
2018-08-22T14:02:26.247Z,14.13
2018-08-22T14:04:55.325Z,13.93
2018-08-22T14:07:24.122Z,19.35
2018-08-22T14:09:53.052Z,8.35
2018-08-22T14:12:22.371Z,10.48
2018-08-22T14:14:51.096Z,11.50
2018-08-22T14:17:19.846Z,9.65
2018-08-22T14:19:48.776Z,14.23
2018-08-22T14:22:17.600Z,13.00
2018-08-22T14:24:46.580Z,13.43
2018-08-22T14:27:15.918Z,13.03
2018-08-22T14:29:45.068Z,13.85
2018-08-22T14:32:14.078Z,10.10
2018-08-22T14:34:42.854Z,10.40
2018-08-22T14:37:11.690Z,12.53
2018-08-22T14:39:40.881Z,12.28
2018-08-22T14:42:09.779Z,13.88
2018-08-22T14:44:38.704Z,12.37
2018-08-22T14:47:07.458Z,17.32
2018-08-22T14:49:36.226Z,11.43
2018-08-22T14:52:05.093Z,10.90
2018-08-22T14:54:34.052Z,10.28
2018-08-22T14:57:02.991Z,9.58
2018-08-22T14:59:32.190Z,17.77
2018-08-22T15:02:01.260Z,10.98
2018-08-22T15:04:30.206Z,15.20
2018-08-22T15:06:58.993Z,14.18
2018-08-22T15:09:28.147Z,10.95
2018-08-22T15:11:56.783Z,15.50
2018-08-22T15:14:25.616Z,11.48
2018-08-22T15:16:54.385Z,18.37
2018-08-22T15:19:23.646Z,10.23
2018-08-22T15:21:52.411Z,8.03
2018-08-22T15:24:21.135Z,10.58
2018-08-22T15:26:50.211Z,12.50
2018-08-22T15:29:19.147Z,16.67
2018-08-22T15:31:48.092Z,13.35
2018-08-22T15:34:16.844Z,17.30
2018-08-22T15:36:45.662Z,16.20
2018-08-22T15:39:14.543Z,21.95
2018-08-22T15:41:43.237Z,11.00
2018-08-22T15:44:12.071Z,18.45
2018-08-22T15:46:41.074Z,14.83
2018-08-22T15:49:10.110Z,15.20
2018-08-22T15:51:38.934Z,14.50
2018-08-22T15:54:10.932Z,11.33
2018-08-22T15:56:41.089Z,11.00
2018-08-22T15:59:10.952Z,10.68
2018-08-22T16:01:40.075Z,13.98
2018-08-22T16:04:09.548Z,10.85
2018-08-22T16:06:38.613Z,15.48
2018-08-22T16:09:15.599Z,12.50
2018-08-22T16:11:44.895Z,8.83
2018-08-22T16:14:13.723Z,12.93
2018-08-22T16:16:42.797Z,12.85
2018-08-22T16:19:11.823Z,13.93
2018-08-22T16:21:40.695Z,12.78
2018-08-22T16:24:09.585Z,22.35
2018-08-22T16:26:38.300Z,13.13
2018-08-22T16:29:07.133Z,13.72
2018-08-22T16:31:40.081Z,8.83
2018-08-22T16:34:11.404Z,8.53
2018-08-22T16:36:40.601Z,9.35
2018-08-22T16:39:09.871Z,17.92
2018-08-22T16:41:39.102Z,19.23
2018-08-22T16:44:08.259Z,15.65
2018-08-22T16:46:36.983Z,24.20
2018-08-22T16:49:05.886Z,11.57
2018-08-22T16:51:34.820Z,15.63
2018-08-22T16:54:08.596Z,16.48
2018-08-22T16:56:37.384Z,13.45
2018-08-22T16:59:12.813Z,10.60
2018-08-22T17:01:45.499Z,7.75
2018-08-22T17:04:14.240Z,10.32
2018-08-22T17:06:43.133Z,21.25
2018-08-22T17:09:12.408Z,14.75
2018-08-22T17:11:41.678Z,10.88
2018-08-22T17:14:10.659Z,11.75
2018-08-22T17:16:39.617Z,9.70
2018-08-22T17:19:08.473Z,16.23
2018-08-22T17:21:37.254Z,14.47
2018-08-22T17:24:06.450Z,15.65
2018-08-22T17:26:35.187Z,19.07
2018-08-22T17:29:03.827Z,12.35
2018-08-22T17:31:32.617Z,16.52
2018-08-22T17:34:03.339Z,14.33
2018-08-22T17:36:32.099Z,11.05
2018-08-22T17:39:01.746Z,15.68
2018-08-22T17:41:31.255Z,17.17
2018-08-22T17:44:10.994Z,15.03
2018-08-22T17:46:45.607Z,10.82
2018-08-22T17:49:14.532Z,17.67
2018-08-22T17:52:16.515Z,17.12
2018-08-22T17:54:45.610Z,14.83
2018-08-22T17:57:22.824Z,17.27
2018-08-22T17:59:51.539Z,18.65
2018-08-22T18:02:20.201Z,12.85
2018-08-22T18:05:00.807Z,14.78
2018-08-22T18:07:29.992Z,13.30
2018-08-22T18:09:58.889Z,20.70
2018-08-22T18:12:28.598Z,14.05
2018-08-22T18:14:58.626Z,21.30
2018-08-22T18:17:27.580Z,20.92
2018-08-22T18:19:56.808Z,16.10
2018-08-22T18:22:29.603Z,19.73
2018-08-22T18:24:58.848Z,20.92
2018-08-22T18:27:28.057Z,16.35
2018-08-22T18:29:57.010Z,13.18
2018-08-22T18:32:25.796Z,16.73
2018-08-22T18:35:16.495Z,14.83
2018-08-22T18:37:45.507Z,23.12
2018-08-22T18:40:18.065Z,13.18
2018-08-22T18:42:51.357Z,14.25
2018-08-22T18:45:20.965Z,12.20
2018-08-22T18:47:49.911Z,17.60
2018-08-22T18:50:19.120Z,13.10
2018-08-22T18:52:50.517Z,11.25
2018-08-22T18:55:20.999Z,15.03
2018-08-22T18:57:50.102Z,19.65
2018-08-22T19:00:18.884Z,16.93
2018-08-22T19:02:49.490Z,18.27
2018-08-22T19:05:25.402Z,19.98
2018-08-22T19:08:00.760Z,24.65
2018-08-22T19:10:34.746Z,22.40
2018-08-22T19:13:08.940Z,23.42
2018-08-22T19:15:38.380Z,17.20
2018-08-22T19:18:08.610Z,16.42
2018-08-22T19:20:37.767Z,12.93
2018-08-22T19:23:06.768Z,15.38
2018-08-22T19:25:35.825Z,21.40
2018-08-22T19:28:04.850Z,18.05
2018-08-22T19:30:37.446Z,21.02
2018-08-22T19:33:10.163Z,13.98
2018-08-22T19:35:39.264Z,12.65
2018-08-22T19:38:08.643Z,13.67
2018-08-22T19:40:38.017Z,14.85
2018-08-22T19:43:06.763Z,18.50
2018-08-22T19:45:36.098Z,19.70
2018-08-22T19:48:05.178Z,24.43
2018-08-22T19:50:34.096Z,12.20
2018-08-22T19:53:03.134Z,15.80
2018-08-22T19:55:32.759Z,12.78
2018-08-22T19:58:02.023Z,19.45
2018-08-22T20:00:31.171Z,16.07
2018-08-22T20:03:00.203Z,20.55
2018-08-22T20:05:41.862Z,18.13
2018-08-22T20:08:10.999Z,12.70
2018-08-22T20:10:40.299Z,11.10
2018-08-22T20:13:09.274Z,17.90
2018-08-22T20:15:38.017Z,17.67
2018-08-22T20:18:06.794Z,15.37
2018-08-22T20:20:35.820Z,15.90
2018-08-22T20:23:04.585Z,19.77
2018-08-22T20:25:33.640Z,13.03
2018-08-22T20:28:02.507Z,18.43
2018-08-22T20:30:31.679Z,14.67
2018-08-22T20:33:06.856Z,10.67
2018-08-22T20:35:38.768Z,10.90
2018-08-22T20:38:10.818Z,12.77
2018-08-22T20:40:39.614Z,16.50
2018-08-22T20:43:15.147Z,9.57
2018-08-22T20:45:45.069Z,14.40
2018-08-22T20:48:14.822Z,11.87
2018-08-22T20:50:44.666Z,13.37
2018-08-22T20:53:15.398Z,11.87
2018-08-22T20:55:44.477Z,9.53
2018-08-22T20:58:30.806Z,8.87
2018-08-22T21:01:00.443Z,9.10
2018-08-22T21:03:29.397Z,11.27
2018-08-22T21:05:58.312Z,13.13
2018-08-22T21:08:27.559Z,12.00
2018-08-22T21:10:56.327Z,12.13
2018-08-22T21:13:28.509Z,17.03
2018-08-22T21:15:57.795Z,11.43
2018-08-22T21:18:26.888Z,8.77
2018-08-22T21:20:55.767Z,18.23
2018-08-22T21:23:24.475Z,12.20
2018-08-22T21:25:53.118Z,12.43
2018-08-22T21:28:26.774Z,10.20
2018-08-22T21:31:00.954Z,11.30
2018-08-22T21:33:30.942Z,12.77
2018-08-22T21:36:00.002Z,9.30
2018-08-22T21:38:28.830Z,11.47
2018-08-22T21:40:57.871Z,13.60
2018-08-22T21:43:26.763Z,10.27
2018-08-22T21:45:55.848Z,9.30
2018-08-22T21:48:26.400Z,10.73
2018-08-22T21:50:55.290Z,12.40
2018-08-22T21:53:24.114Z,9.27
2018-08-22T21:55:53.553Z,9.40
2018-08-22T21:58:22.218Z,10.50
2018-08-22T22:00:50.900Z,8.43
2018-08-22T22:03:24.939Z,11.17
2018-08-22T22:05:59.292Z,19.10
2018-08-22T22:08:28.339Z,10.33
2018-08-22T22:11:01.098Z,11.60
2018-08-22T22:13:30.421Z,10.57
2018-08-22T22:16:00.358Z,12.27
2018-08-22T22:18:30.954Z,10.13
2018-08-22T22:21:13.217Z,9.27
2018-08-22T22:23:46.511Z,13.33
2018-08-22T22:26:16.754Z,8.43
2018-08-22T22:28:45.680Z,9.40
2018-08-22T22:31:15.535Z,7.87
2018-08-22T22:33:48.211Z,9.63
2018-08-22T22:36:17.343Z,9.60
2018-08-22T22:38:46.508Z,10.60
2018-08-22T22:41:15.511Z,12.97
2018-08-22T22:43:44.519Z,15.00
2018-08-22T22:46:13.338Z,9.80
2018-08-22T22:48:43.651Z,14.50
2018-08-22T22:51:12.520Z,9.80
2018-08-22T22:53:41.390Z,8.50
2018-08-22T22:56:10.398Z,7.83
2018-08-22T22:58:39.219Z,9.60
2018-08-22T23:01:08.411Z,9.27
2018-08-22T23:03:37.329Z,9.17
2018-08-22T23:06:05.769Z,10.47
2018-08-22T23:08:34.570Z,8.40
2018-08-22T23:11:03.299Z,8.97
2018-08-22T23:13:32.493Z,9.93
2018-08-22T23:16:01.781Z,8.63
2018-08-22T23:18:30.808Z,7.80
2018-08-22T23:21:00.255Z,16.33
2018-08-22T23:23:31.434Z,9.77
2018-08-22T23:26:07.034Z,9.40
2018-08-22T23:28:35.761Z,11.40
2018-08-22T23:31:04.687Z,6.33
2018-08-22T23:33:33.640Z,6.13
2018-08-22T23:36:02.586Z,9.87
2018-08-22T23:38:33.287Z,6.30
2018-08-22T23:41:03.438Z,10.73
2018-08-22T23:43:39.050Z,6.80
2018-08-22T23:46:09.201Z,10.00
2018-08-22T23:48:38.684Z,5.97
2018-08-22T23:51:09.493Z,11.43
2018-08-22T23:53:43.485Z,6.47
2018-08-22T23:56:20.500Z,10.60
2018-08-22T23:58:50.155Z,13.07
